Accueil
METAR-TAF:

METAR-TAF

Aéroports :

Cabo San Lucas, Mexique

latitude: 22-56-51N, longitude: 109-56-13W, altitude: 210 m

Observation

Le bulletin a été fait il y a 29 minutes, à 21:45 UTC
Vent 2 kt de ouest/sud-ouest
Température 30°C
Humidité 27%
Pression 1012 hPa
Visibilité: 16.1 km
Quelques nuages à une hauteur de 24000 ft

METAR: MMSL 192145Z 24002KT 10SM FEW240 30/09 A2988 RMK 8/008

Heure: 15:14 (22:14 UTC)

Prévision

Le bulletin a été fait il y a 5 heures et 33 minutes, à 16:41 UTC
Prévision valable du 19 à 18 UTC au 20 à 18 UTC
Vent 12 kt de sud-ouest
Visibilité: 10 km
Nuages épars à une hauteur de 25000 ft
A partir de 20 à 0600 UTC
Vent kt de nord
Visibilité: 10 km
Nuages épars à une hauteur de 25000 ft

TAF: MMSL 191641Z 1918/2018 23012KT P6SM SCT250 FM200600 00000KT P6SM SCT250

Observations et prévisions météorologiques de plus de 4000 aéroports (messages METAR et TAF).

Les stations disponibles sont représentées par des disques jaunes et rouges sur la carte.

Passer la souris dessus pour voir le nom de la station.

Cliquer dessus pour voir les observations et prévisions météorologiques.

Pour changer de carte: cliquez sur les boutons verts avec une croix noire pour zoomer, sur le bouton vert avec un tiret pour effectuer un zoom arrière, ou sur les flèches vertes pour les cartes adjacentes.


METAR-TAF: